Terminal Aerodrome Forecast
Issued by NWS

Home | Current Version | Previous Version | Text Only | Print | Product List | Glossary On
Versions: 1 2 3 4 5 6 7 8 9 10 11 12
130
FTUS42 KGSP 290525
TAFAND
TAF
KAND 290525Z 2906/3006 13004KT P6SM SCT050
     FM291100 09003KT P6SM SCT250
     FM291700 13006KT P6SM BKN100 PROB30 2923/3004 4SM -SHRA OVC025
     FM300400 15003KT P6SM BKN030 PROB30 3004/3006 4SM -SHRA OVC007=

USA.gov is the U.S. government's official web portal to all federal, state and local government web resources and services.